sensor_id;sensor_type;location;lat;lon;timestamp;temperature;humidity
79055;DHT22;68452;47.186;-1.528;2023-05-20T00:01:36;16.40;47.70
79055;DHT22;68452;47.186;-1.528;2023-05-20T00:04:02;16.30;48.00
79055;DHT22;68452;47.186;-1.528;2023-05-20T00:06:27;16.20;48.00
79055;DHT22;68452;47.186;-1.528;2023-05-20T00:08:53;16.10;48.50
79055;DHT22;68452;47.186;-1.528;2023-05-20T00:11:20;16.40;48.50
79055;DHT22;68452;47.186;-1.528;2023-05-20T00:13:46;16.50;47.80
79055;DHT22;68452;47.186;-1.528;2023-05-20T00:16:12;16.40;47.80
79055;DHT22;68452;47.186;-1.528;2023-05-20T00:18:38;16.40;48.20
79055;DHT22;68452;47.186;-1.528;2023-05-20T00:21:03;16.30;48.20
79055;DHT22;68452;47.186;-1.528;2023-05-20T00:23:29;16.30;48.60
79055;DHT22;68452;47.186;-1.528;2023-05-20T00:25:55;16.30;48.30
79055;DHT22;68452;47.186;-1.528;2023-05-20T00:28:21;16.30;48.20
79055;DHT22;68452;47.186;-1.528;2023-05-20T00:30:48;16.40;48.50
79055;DHT22;68452;47.186;-1.528;2023-05-20T00:33:14;16.40;47.90
79055;DHT22;68452;47.186;-1.528;2023-05-20T00:35:39;16.30;48.20
79055;DHT22;68452;47.186;-1.528;2023-05-20T00:38:05;16.20;48.50
79055;DHT22;68452;47.186;-1.528;2023-05-20T00:40:31;16.10;49.00
79055;DHT22;68452;47.186;-1.528;2023-05-20T00:42:57;16.10;48.70
79055;DHT22;68452;47.186;-1.528;2023-05-20T00:45:23;16.00;49.10
79055;DHT22;68452;47.186;-1.528;2023-05-20T00:47:49;16.00;48.90
79055;DHT22;68452;47.186;-1.528;2023-05-20T00:50:16;16.10;48.70
79055;DHT22;68452;47.186;-1.528;2023-05-20T00:52:42;15.90;49.40
79055;DHT22;68452;47.186;-1.528;2023-05-20T00:55:09;15.90;49.10
79055;DHT22;68452;47.186;-1.528;2023-05-20T00:57:35;16.00;49.30
79055;DHT22;68452;47.186;-1.528;2023-05-20T01:00:02;16.10;49.10
79055;DHT22;68452;47.186;-1.528;2023-05-20T01:02:28;16.10;48.90
79055;DHT22;68452;47.186;-1.528;2023-05-20T01:04:56;16.20;48.50
79055;DHT22;68452;47.186;-1.528;2023-05-20T01:07:22;16.00;49.10
79055;DHT22;68452;47.186;-1.528;2023-05-20T01:09:48;16.10;49.00
79055;DHT22;68452;47.186;-1.528;2023-05-20T01:12:38;16.10;48.90
79055;DHT22;68452;47.186;-1.528;2023-05-20T01:15:14;16.10;49.00
79055;DHT22;68452;47.186;-1.528;2023-05-20T01:17:45;16.20;48.90
79055;DHT22;68452;47.186;-1.528;2023-05-20T01:20:12;16.30;48.20
79055;DHT22;68452;47.186;-1.528;2023-05-20T01:22:59;16.00;48.70
79055;DHT22;68452;47.186;-1.528;2023-05-20T01:25:25;15.70;49.60
79055;DHT22;68452;47.186;-1.528;2023-05-20T01:27:51;15.90;49.50
79055;DHT22;68452;47.186;-1.528;2023-05-20T01:30:19;16.10;48.60
79055;DHT22;68452;47.186;-1.528;2023-05-20T01:32:54;15.90;49.00
79055;DHT22;68452;47.186;-1.528;2023-05-20T01:35:22;15.70;49.60
79055;DHT22;68452;47.186;-1.528;2023-05-20T01:37:49;15.80;49.50
79055;DHT22;68452;47.186;-1.528;2023-05-20T01:40:17;15.90;49.00
79055;DHT22;68452;47.186;-1.528;2023-05-20T01:42:44;15.70;49.50
79055;DHT22;68452;47.186;-1.528;2023-05-20T01:45:11;15.50;50.10
79055;DHT22;68452;47.186;-1.528;2023-05-20T01:47:37;15.50;50.40
79055;DHT22;68452;47.186;-1.528;2023-05-20T01:50:03;15.60;50.10
79055;DHT22;68452;47.186;-1.528;2023-05-20T01:52:29;15.70;49.90
79055;DHT22;68452;47.186;-1.528;2023-05-20T01:54:56;15.60;49.70
79055;DHT22;68452;47.186;-1.528;2023-05-20T01:57:22;15.50;50.20
79055;DHT22;68452;47.186;-1.528;2023-05-20T01:59:49;15.30;50.40
79055;DHT22;68452;47.186;-1.528;2023-05-20T02:02:15;15.20;50.80
79055;DHT22;68452;47.186;-1.528;2023-05-20T02:04:44;15.20;51.00
79055;DHT22;68452;47.186;-1.528;2023-05-20T02:07:13;15.10;51.50
79055;DHT22;68452;47.186;-1.528;2023-05-20T02:09:39;15.00;51.80
79055;DHT22;68452;47.186;-1.528;2023-05-20T02:12:06;15.00;51.80
79055;DHT22;68452;47.186;-1.528;2023-05-20T02:14:32;15.20;51.30
79055;DHT22;68452;47.186;-1.528;2023-05-20T02:16:58;15.40;51.30
79055;DHT22;68452;47.186;-1.528;2023-05-20T02:19:23;15.60;50.50
79055;DHT22;68452;47.186;-1.528;2023-05-20T02:21:50;15.40;50.30
79055;DHT22;68452;47.186;-1.528;2023-05-20T02:24:16;15.20;50.90
79055;DHT22;68452;47.186;-1.528;2023-05-20T02:26:42;15.00;51.80
79055;DHT22;68452;47.186;-1.528;2023-05-20T02:29:10;15.10;51.50
79055;DHT22;68452;47.186;-1.528;2023-05-20T02:31:36;15.10;51.40
79055;DHT22;68452;47.186;-1.528;2023-05-20T02:34:01;15.20;51.40
79055;DHT22;68452;47.186;-1.528;2023-05-20T02:36:28;15.10;51.60
79055;DHT22;68452;47.186;-1.528;2023-05-20T02:38:56;15.30;51.20
79055;DHT22;68452;47.186;-1.528;2023-05-20T02:41:22;15.30;51.10
79055;DHT22;68452;47.186;-1.528;2023-05-20T02:43:48;15.30;51.40
79055;DHT22;68452;47.186;-1.528;2023-05-20T02:46:14;15.30;51.00
79055;DHT22;68452;47.186;-1.528;2023-05-20T02:48:42;15.10;51.60
79055;DHT22;68452;47.186;-1.528;2023-05-20T02:51:08;15.20;51.50
79055;DHT22;68452;47.186;-1.528;2023-05-20T02:53:33;15.30;51.30
79055;DHT22;68452;47.186;-1.528;2023-05-20T02:55:59;15.20;51.50
79055;DHT22;68452;47.186;-1.528;2023-05-20T02:58:26;15.30;51.60
79055;DHT22;68452;47.186;-1.528;2023-05-20T03:00:52;15.30;51.40
79055;DHT22;68452;47.186;-1.528;2023-05-20T03:03:18;15.30;51.60
79055;DHT22;68452;47.186;-1.528;2023-05-20T03:05:44;15.30;51.20
79055;DHT22;68452;47.186;-1.528;2023-05-20T03:08:11;15.30;51.70
79055;DHT22;68452;47.186;-1.528;2023-05-20T03:10:38;15.30;51.20
79055;DHT22;68452;47.186;-1.528;2023-05-20T03:13:05;15.00;51.80
79055;DHT22;68452;47.186;-1.528;2023-05-20T03:15:36;15.00;52.10
79055;DHT22;68452;47.186;-1.528;2023-05-20T03:18:02;15.00;51.80
79055;DHT22;68452;47.186;-1.528;2023-05-20T03:20:28;15.00;52.30
79055;DHT22;68452;47.186;-1.528;2023-05-20T03:22:54;15.00;51.70
79055;DHT22;68452;47.186;-1.528;2023-05-20T03:25:21;15.10;51.60
79055;DHT22;68452;47.186;-1.528;2023-05-20T03:27:47;15.10;51.50
79055;DHT22;68452;47.186;-1.528;2023-05-20T03:30:13;15.10;51.40
79055;DHT22;68452;47.186;-1.528;2023-05-20T03:32:39;15.10;51.70
79055;DHT22;68452;47.186;-1.528;2023-05-20T03:35:05;15.20;51.60
79055;DHT22;68452;47.186;-1.528;2023-05-20T03:37:31;15.30;51.20
79055;DHT22;68452;47.186;-1.528;2023-05-20T03:39:57;15.20;51.30
79055;DHT22;68452;47.186;-1.528;2023-05-20T03:42:23;14.90;51.40
79055;DHT22;68452;47.186;-1.528;2023-05-20T03:44:49;14.70;52.10
79055;DHT22;68452;47.186;-1.528;2023-05-20T03:47:15;14.70;52.20
79055;DHT22;68452;47.186;-1.528;2023-05-20T03:49:40;14.60;52.50
79055;DHT22;68452;47.186;-1.528;2023-05-20T03:52:07;14.70;52.90
79055;DHT22;68452;47.186;-1.528;2023-05-20T03:54:32;14.90;52.10
79055;DHT22;68452;47.186;-1.528;2023-05-20T03:57:00;15.00;52.20
79055;DHT22;68452;47.186;-1.528;2023-05-20T03:59:27;15.00;51.30
79055;DHT22;68452;47.186;-1.528;2023-05-20T04:01:53;14.70;52.40
79055;DHT22;68452;47.186;-1.528;2023-05-20T04:04:21;14.80;52.60
79055;DHT22;68452;47.186;-1.528;2023-05-20T04:06:47;14.80;52.50
79055;DHT22;68452;47.186;-1.528;2023-05-20T04:09:12;14.80;52.40
79055;DHT22;68452;47.186;-1.528;2023-05-20T04:11:38;14.80;52.00
79055;DHT22;68452;47.186;-1.528;2023-05-20T04:14:04;14.70;52.20
79055;DHT22;68452;47.186;-1.528;2023-05-20T04:16:30;14.60;52.90
79055;DHT22;68452;47.186;-1.528;2023-05-20T04:18:56;14.70;52.40
79055;DHT22;68452;47.186;-1.528;2023-05-20T04:21:23;14.50;53.00
79055;DHT22;68452;47.186;-1.528;2023-05-20T04:23:49;14.50;52.80
79055;DHT22;68452;47.186;-1.528;2023-05-20T04:26:15;14.40;53.40
79055;DHT22;68452;47.186;-1.528;2023-05-20T04:28:41;14.50;53.40
79055;DHT22;68452;47.186;-1.528;2023-05-20T04:31:07;14.70;52.90
79055;DHT22;68452;47.186;-1.528;2023-05-20T04:33:33;14.50;52.70
79055;DHT22;68452;47.186;-1.528;2023-05-20T04:36:03;14.50;53.30
79055;DHT22;68452;47.186;-1.528;2023-05-20T04:38:30;14.40;53.00
79055;DHT22;68452;47.186;-1.528;2023-05-20T04:40:57;14.30;53.60
79055;DHT22;68452;47.186;-1.528;2023-05-20T04:43:26;14.40;53.40
79055;DHT22;68452;47.186;-1.528;2023-05-20T04:45:56;14.30;53.80
79055;DHT22;68452;47.186;-1.528;2023-05-20T04:48:23;14.40;52.80
79055;DHT22;68452;47.186;-1.528;2023-05-20T04:50:49;14.20;53.80
79055;DHT22;68452;47.186;-1.528;2023-05-20T04:53:17;14.40;53.80
79055;DHT22;68452;47.186;-1.528;2023-05-20T04:55:46;14.40;53.30
79055;DHT22;68452;47.186;-1.528;2023-05-20T04:58:12;14.30;53.40
79055;DHT22;68452;47.186;-1.528;2023-05-20T05:00:42;14.40;53.80
79055;DHT22;68452;47.186;-1.528;2023-05-20T05:03:09;14.30;53.50
79055;DHT22;68452;47.186;-1.528;2023-05-20T05:05:35;14.30;53.80
79055;DHT22;68452;47.186;-1.528;2023-05-20T05:08:02;14.10;54.30
79055;DHT22;68452;47.186;-1.528;2023-05-20T05:10:28;14.20;54.00
79055;DHT22;68452;47.186;-1.528;2023-05-20T05:12:54;14.20;53.80
79055;DHT22;68452;47.186;-1.528;2023-05-20T05:15:20;14.10;54.20
79055;DHT22;68452;47.186;-1.528;2023-05-20T05:17:46;14.30;54.50
79055;DHT22;68452;47.186;-1.528;2023-05-20T05:20:12;14.20;54.10
79055;DHT22;68452;47.186;-1.528;2023-05-20T05:22:37;14.30;54.40
79055;DHT22;68452;47.186;-1.528;2023-05-20T05:25:06;14.50;53.90
79055;DHT22;68452;47.186;-1.528;2023-05-20T05:27:32;14.50;54.00
79055;DHT22;68452;47.186;-1.528;2023-05-20T05:29:58;14.50;53.20
79055;DHT22;68452;47.186;-1.528;2023-05-20T05:32:24;14.50;53.60
79055;DHT22;68452;47.186;-1.528;2023-05-20T05:34:50;14.50;53.60
79055;DHT22;68452;47.186;-1.528;2023-05-20T05:37:15;14.50;53.60
79055;DHT22;68452;47.186;-1.528;2023-05-20T05:39:41;14.40;53.40
79055;DHT22;68452;47.186;-1.528;2023-05-20T05:42:07;14.30;54.20
79055;DHT22;68452;47.186;-1.528;2023-05-20T05:44:33;14.50;53.80
79055;DHT22;68452;47.186;-1.528;2023-05-20T05:46:59;14.70;53.20
79055;DHT22;68452;47.186;-1.528;2023-05-20T05:49:24;14.60;53.70
79055;DHT22;68452;47.186;-1.528;2023-05-20T05:51:50;14.70;53.20
79055;DHT22;68452;47.186;-1.528;2023-05-20T05:54:16;14.70;53.30
79055;DHT22;68452;47.186;-1.528;2023-05-20T05:56:42;14.70;53.00
79055;DHT22;68452;47.186;-1.528;2023-05-20T05:59:08;14.40;53.40
79055;DHT22;68452;47.186;-1.528;2023-05-20T06:01:33;14.50;54.00
79055;DHT22;68452;47.186;-1.528;2023-05-20T06:03:59;14.70;53.40
79055;DHT22;68452;47.186;-1.528;2023-05-20T06:06:26;14.60;53.50
79055;DHT22;68452;47.186;-1.528;2023-05-20T06:08:51;14.60;53.80
79055;DHT22;68452;47.186;-1.528;2023-05-20T06:11:17;14.70;53.50
79055;DHT22;68452;47.186;-1.528;2023-05-20T06:13:43;14.70;53.70
79055;DHT22;68452;47.186;-1.528;2023-05-20T06:16:09;14.80;53.70
79055;DHT22;68452;47.186;-1.528;2023-05-20T06:18:34;14.80;53.80
79055;DHT22;68452;47.186;-1.528;2023-05-20T06:21:01;14.70;53.60
79055;DHT22;68452;47.186;-1.528;2023-05-20T06:23:27;14.60;54.20
79055;DHT22;68452;47.186;-1.528;2023-05-20T06:25:57;14.60;54.20
79055;DHT22;68452;47.186;-1.528;2023-05-20T06:28:23;14.60;54.00
79055;DHT22;68452;47.186;-1.528;2023-05-20T06:30:49;14.60;54.30
79055;DHT22;68452;47.186;-1.528;2023-05-20T06:33:15;14.50;54.80
79055;DHT22;68452;47.186;-1.528;2023-05-20T06:35:42;14.90;54.40
79055;DHT22;68452;47.186;-1.528;2023-05-20T06:38:08;15.10;53.60
79055;DHT22;68452;47.186;-1.528;2023-05-20T06:40:34;15.10;53.60
79055;DHT22;68452;47.186;-1.528;2023-05-20T06:43:00;15.30;53.50
79055;DHT22;68452;47.186;-1.528;2023-05-20T06:45:26;15.20;53.50
79055;DHT22;68452;47.186;-1.528;2023-05-20T06:47:51;15.30;53.20
79055;DHT22;68452;47.186;-1.528;2023-05-20T06:50:19;15.30;53.60
79055;DHT22;68452;47.186;-1.528;2023-05-20T06:52:44;15.50;53.40
79055;DHT22;68452;47.186;-1.528;2023-05-20T06:55:10;15.50;53.00
79055;DHT22;68452;47.186;-1.528;2023-05-20T06:57:36;15.50;53.50
79055;DHT22;68452;47.186;-1.528;2023-05-20T07:00:03;15.70;52.90
79055;DHT22;68452;47.186;-1.528;2023-05-20T07:02:32;15.70;53.00
79055;DHT22;68452;47.186;-1.528;2023-05-20T07:04:58;15.80;52.70
79055;DHT22;68452;47.186;-1.528;2023-05-20T07:07:24;15.70;52.70
79055;DHT22;68452;47.186;-1.528;2023-05-20T07:09:49;15.80;52.50
79055;DHT22;68452;47.186;-1.528;2023-05-20T07:12:15;15.90;52.60
79055;DHT22;68452;47.186;-1.528;2023-05-20T07:14:41;15.90;52.70
79055;DHT22;68452;47.186;-1.528;2023-05-20T07:17:07;16.20;52.50
79055;DHT22;68452;47.186;-1.528;2023-05-20T07:19:33;16.60;51.90
79055;DHT22;68452;47.186;-1.528;2023-05-20T07:21:59;16.60;51.10
79055;DHT22;68452;47.186;-1.528;2023-05-20T07:24:25;16.50;51.50
79055;DHT22;68452;47.186;-1.528;2023-05-20T07:26:51;16.50;51.30
79055;DHT22;68452;47.186;-1.528;2023-05-20T07:29:17;16.40;51.70
79055;DHT22;68452;47.186;-1.528;2023-05-20T07:31:43;16.30;52.20
79055;DHT22;68452;47.186;-1.528;2023-05-20T07:34:08;16.40;52.40
79055;DHT22;68452;47.186;-1.528;2023-05-20T07:36:34;16.50;51.90
79055;DHT22;68452;47.186;-1.528;2023-05-20T07:39:00;16.70;51.70
79055;DHT22;68452;47.186;-1.528;2023-05-20T07:41:26;17.10;51.40
79055;DHT22;68452;47.186;-1.528;2023-05-20T07:43:52;17.40;50.60
79055;DHT22;68452;47.186;-1.528;2023-05-20T07:46:17;17.40;50.50
79055;DHT22;68452;47.186;-1.528;2023-05-20T07:48:43;17.50;50.60
79055;DHT22;68452;47.186;-1.528;2023-05-20T07:51:10;17.50;50.40
79055;DHT22;68452;47.186;-1.528;2023-05-20T07:53:36;17.50;50.30
79055;DHT22;68452;47.186;-1.528;2023-05-20T07:56:02;17.50;50.40
79055;DHT22;68452;47.186;-1.528;2023-05-20T07:58:28;17.50;50.30
79055;DHT22;68452;47.186;-1.528;2023-05-20T08:00:54;17.30;50.90
79055;DHT22;68452;47.186;-1.528;2023-05-20T08:03:20;17.30;51.20
79055;DHT22;68452;47.186;-1.528;2023-05-20T08:05:46;17.60;50.90
79055;DHT22;68452;47.186;-1.528;2023-05-20T08:08:12;17.60;50.50
79055;DHT22;68452;47.186;-1.528;2023-05-20T08:10:38;17.70;50.80
79055;DHT22;68452;47.186;-1.528;2023-05-20T08:13:04;17.90;50.70
79055;DHT22;68452;47.186;-1.528;2023-05-20T08:15:30;18.00;50.00
79055;DHT22;68452;47.186;-1.528;2023-05-20T08:17:56;18.10;49.90
79055;DHT22;68452;47.186;-1.528;2023-05-20T08:20:22;18.20;49.60
79055;DHT22;68452;47.186;-1.528;2023-05-20T08:22:47;18.30;49.50
79055;DHT22;68452;47.186;-1.528;2023-05-20T08:25:14;18.30;49.80
79055;DHT22;68452;47.186;-1.528;2023-05-20T08:27:40;18.20;49.50
79055;DHT22;68452;47.186;-1.528;2023-05-20T08:30:07;18.40;49.50
79055;DHT22;68452;47.186;-1.528;2023-05-20T08:32:35;18.40;49.40
79055;DHT22;68452;47.186;-1.528;2023-05-20T08:35:01;18.50;49.30
79055;DHT22;68452;47.186;-1.528;2023-05-20T08:37:28;18.50;49.00
79055;DHT22;68452;47.186;-1.528;2023-05-20T08:39:54;18.60;49.30
79055;DHT22;68452;47.186;-1.528;2023-05-20T08:42:24;18.80;49.40
79055;DHT22;68452;47.186;-1.528;2023-05-20T08:44:51;18.80;49.20
79055;DHT22;68452;47.186;-1.528;2023-05-20T08:47:21;19.00;49.00
79055;DHT22;68452;47.186;-1.528;2023-05-20T08:49:50;19.30;48.90
79055;DHT22;68452;47.186;-1.528;2023-05-20T08:52:17;19.20;48.60
79055;DHT22;68452;47.186;-1.528;2023-05-20T08:54:47;19.20;48.50
79055;DHT22;68452;47.186;-1.528;2023-05-20T08:57:14;19.40;48.60
79055;DHT22;68452;47.186;-1.528;2023-05-20T08:59:44;19.50;48.20
79055;DHT22;68452;47.186;-1.528;2023-05-20T09:02:11;19.40;48.50
79055;DHT22;68452;47.186;-1.528;2023-05-20T09:04:37;19.40;48.40
79055;DHT22;68452;47.186;-1.528;2023-05-20T09:07:03;19.40;48.60
79055;DHT22;68452;47.186;-1.528;2023-05-20T09:09:33;19.50;48.50
79055;DHT22;68452;47.186;-1.528;2023-05-20T09:12:01;19.40;48.30
79055;DHT22;68452;47.186;-1.528;2023-05-20T09:14:29;19.50;48.70
79055;DHT22;68452;47.186;-1.528;2023-05-20T09:16:55;19.60;48.40
79055;DHT22;68452;47.186;-1.528;2023-05-20T09:19:22;19.90;48.00
79055;DHT22;68452;47.186;-1.528;2023-05-20T09:21:53;20.00;47.90
79055;DHT22;68452;47.186;-1.528;2023-05-20T09:24:23;20.10;47.60
79055;DHT22;68452;47.186;-1.528;2023-05-20T09:26:50;20.00;47.40
79055;DHT22;68452;47.186;-1.528;2023-05-20T09:29:16;20.20;47.30
79055;DHT22;68452;47.186;-1.528;2023-05-20T09:31:44;20.40;47.00
79055;DHT22;68452;47.186;-1.528;2023-05-20T09:34:10;20.60;46.70
79055;DHT22;68452;47.186;-1.528;2023-05-20T09:36:38;20.80;46.50
79055;DHT22;68452;47.186;-1.528;2023-05-20T09:39:08;20.80;46.50
79055;DHT22;68452;47.186;-1.528;2023-05-20T09:41:38;20.70;46.50
79055;DHT22;68452;47.186;-1.528;2023-05-20T09:44:10;20.50;46.40
79055;DHT22;68452;47.186;-1.528;2023-05-20T09:46:37;20.70;46.40
79055;DHT22;68452;47.186;-1.528;2023-05-20T09:49:05;20.90;45.90
79055;DHT22;68452;47.186;-1.528;2023-05-20T09:51:32;21.00;45.90
79055;DHT22;68452;47.186;-1.528;2023-05-20T09:54:00;21.20;46.10
79055;DHT22;68452;47.186;-1.528;2023-05-20T09:56:28;21.50;45.90
79055;DHT22;68452;47.186;-1.528;2023-05-20T09:58:57;21.60;45.50
79055;DHT22;68452;47.186;-1.528;2023-05-20T10:01:24;21.70;45.00
79055;DHT22;68452;47.186;-1.528;2023-05-20T10:03:51;21.60;45.10
79055;DHT22;68452;47.186;-1.528;2023-05-20T10:09:54;21.70;45.00
79055;DHT22;68452;47.186;-1.528;2023-05-20T10:15:23;22.10;44.50
79055;DHT22;68452;47.186;-1.528;2023-05-20T10:20:45;22.30;44.30
79055;DHT22;68452;47.186;-1.528;2023-05-20T10:23:29;22.60;43.50
79055;DHT22;68452;47.186;-1.528;2023-05-20T10:26:04;22.70;43.70
79055;DHT22;68452;47.186;-1.528;2023-05-20T10:28:34;22.90;43.60
79055;DHT22;68452;47.186;-1.528;2023-05-20T10:31:01;22.90;42.70
79055;DHT22;68452;47.186;-1.528;2023-05-20T10:33:28;22.90;42.90
79055;DHT22;68452;47.186;-1.528;2023-05-20T10:35:58;22.90;42.90
79055;DHT22;68452;47.186;-1.528;2023-05-20T10:38:24;23.10;42.30
79055;DHT22;68452;47.186;-1.528;2023-05-20T10:40:51;23.20;41.80
79055;DHT22;68452;47.186;-1.528;2023-05-20T10:43:27;23.10;41.90
79055;DHT22;68452;47.186;-1.528;2023-05-20T10:45:57;23.00;42.50
79055;DHT22;68452;47.186;-1.528;2023-05-20T10:48:28;23.20;42.40
79055;DHT22;68452;47.186;-1.528;2023-05-20T10:50:59;23.30;42.40
79055;DHT22;68452;47.186;-1.528;2023-05-20T10:53:36;23.30;41.80
79055;DHT22;68452;47.186;-1.528;2023-05-20T10:56:03;23.30;42.20
79055;DHT22;68452;47.186;-1.528;2023-05-20T10:58:37;23.50;42.70
79055;DHT22;68452;47.186;-1.528;2023-05-20T11:01:03;23.60;42.20
79055;DHT22;68452;47.186;-1.528;2023-05-20T11:03:29;23.70;41.50
79055;DHT22;68452;47.186;-1.528;2023-05-20T11:05:55;24.00;41.80
79055;DHT22;68452;47.186;-1.528;2023-05-20T11:08:21;24.20;41.00
79055;DHT22;68452;47.186;-1.528;2023-05-20T11:10:47;24.40;41.10
79055;DHT22;68452;47.186;-1.528;2023-05-20T11:13:13;24.70;40.20
79055;DHT22;68452;47.186;-1.528;2023-05-20T11:15:42;25.00;40.10
79055;DHT22;68452;47.186;-1.528;2023-05-20T11:18:10;24.90;39.70
79055;DHT22;68452;47.186;-1.528;2023-05-20T11:20:37;24.80;39.40
79055;DHT22;68452;47.186;-1.528;2023-05-20T11:23:05;24.60;39.10
79055;DHT22;68452;47.186;-1.528;2023-05-20T11:25:32;24.70;39.50
79055;DHT22;68452;47.186;-1.528;2023-05-20T11:27:58;24.70;39.30
79055;DHT22;68452;47.186;-1.528;2023-05-20T11:30:24;24.60;38.90
79055;DHT22;68452;47.186;-1.528;2023-05-20T11:32:57;24.90;39.00
79055;DHT22;68452;47.186;-1.528;2023-05-20T11:35:24;25.10;38.30
79055;DHT22;68452;47.186;-1.528;2023-05-20T11:38:01;25.20;38.40
79055;DHT22;68452;47.186;-1.528;2023-05-20T11:40:28;25.30;37.40
79055;DHT22;68452;47.186;-1.528;2023-05-20T11:42:57;24.90;37.90
79055;DHT22;68452;47.186;-1.528;2023-05-20T11:45:24;24.70;38.20
79055;DHT22;68452;47.186;-1.528;2023-05-20T11:48:01;24.80;38.30
79055;DHT22;68452;47.186;-1.528;2023-05-20T11:50:27;24.70;38.10
79055;DHT22;68452;47.186;-1.528;2023-05-20T11:52:57;24.80;38.60
79055;DHT22;68452;47.186;-1.528;2023-05-20T11:55:23;24.80;37.50
79055;DHT22;68452;47.186;-1.528;2023-05-20T11:57:49;24.80;37.40
79055;DHT22;68452;47.186;-1.528;2023-05-20T12:00:16;24.90;38.00
79055;DHT22;68452;47.186;-1.528;2023-05-20T12:02:43;24.90;37.70
79055;DHT22;68452;47.186;-1.528;2023-05-20T12:05:08;25.00;37.90
79055;DHT22;68452;47.186;-1.528;2023-05-20T12:07:34;25.00;37.70
79055;DHT22;68452;47.186;-1.528;2023-05-20T12:10:03;25.20;37.80
79055;DHT22;68452;47.186;-1.528;2023-05-20T12:12:29;25.10;36.80
79055;DHT22;68452;47.186;-1.528;2023-05-20T12:14:56;25.20;37.30
79055;DHT22;68452;47.186;-1.528;2023-05-20T12:17:28;25.40;37.40
79055;DHT22;68452;47.186;-1.528;2023-05-20T12:19:55;25.70;36.10
79055;DHT22;68452;47.186;-1.528;2023-05-20T12:22:21;25.60;35.80
79055;DHT22;68452;47.186;-1.528;2023-05-20T12:24:49;25.50;36.20
79055;DHT22;68452;47.186;-1.528;2023-05-20T12:27:15;25.60;36.40
79055;DHT22;68452;47.186;-1.528;2023-05-20T12:29:42;25.50;36.50
79055;DHT22;68452;47.186;-1.528;2023-05-20T12:32:07;25.60;36.30
79055;DHT22;68452;47.186;-1.528;2023-05-20T12:34:33;25.60;36.30
79055;DHT22;68452;47.186;-1.528;2023-05-20T12:37:00;25.80;35.90
79055;DHT22;68452;47.186;-1.528;2023-05-20T12:39:26;26.00;36.50
79055;DHT22;68452;47.186;-1.528;2023-05-20T12:41:52;26.00;35.40
79055;DHT22;68452;47.186;-1.528;2023-05-20T12:44:17;25.90;35.70
79055;DHT22;68452;47.186;-1.528;2023-05-20T12:46:43;25.90;35.00
79055;DHT22;68452;47.186;-1.528;2023-05-20T12:49:09;25.90;35.70
79055;DHT22;68452;47.186;-1.528;2023-05-20T12:51:35;26.10;35.60
79055;DHT22;68452;47.186;-1.528;2023-05-20T12:54:01;26.30;35.70
79055;DHT22;68452;47.186;-1.528;2023-05-20T12:56:27;26.20;35.00
79055;DHT22;68452;47.186;-1.528;2023-05-20T12:58:52;25.90;35.50
79055;DHT22;68452;47.186;-1.528;2023-05-20T13:01:18;25.70;35.60
79055;DHT22;68452;47.186;-1.528;2023-05-20T13:03:44;25.40;35.40
79055;DHT22;68452;47.186;-1.528;2023-05-20T13:06:10;25.20;35.70
79055;DHT22;68452;47.186;-1.528;2023-05-20T13:08:36;25.10;36.20
79055;DHT22;68452;47.186;-1.528;2023-05-20T13:11:01;25.40;36.40
79055;DHT22;68452;47.186;-1.528;2023-05-20T13:13:27;25.40;35.80
79055;DHT22;68452;47.186;-1.528;2023-05-20T13:15:53;25.50;35.70
79055;DHT22;68452;47.186;-1.528;2023-05-20T13:18:19;25.60;35.30
79055;DHT22;68452;47.186;-1.528;2023-05-20T13:20:46;25.40;35.50
79055;DHT22;68452;47.186;-1.528;2023-05-20T13:23:12;25.50;35.80
79055;DHT22;68452;47.186;-1.528;2023-05-20T13:25:38;25.70;35.90
79055;DHT22;68452;47.186;-1.528;2023-05-20T13:28:04;26.10;35.70
79055;DHT22;68452;47.186;-1.528;2023-05-20T13:30:31;26.40;35.40
79055;DHT22;68452;47.186;-1.528;2023-05-20T13:32:58;26.40;34.10
79055;DHT22;68452;47.186;-1.528;2023-05-20T13:35:24;26.10;33.90
79055;DHT22;68452;47.186;-1.528;2023-05-20T13:37:50;26.20;34.50
79055;DHT22;68452;47.186;-1.528;2023-05-20T13:40:17;26.30;34.40
79055;DHT22;68452;47.186;-1.528;2023-05-20T13:42:43;26.30;34.20
79055;DHT22;68452;47.186;-1.528;2023-05-20T13:45:10;26.40;33.90
79055;DHT22;68452;47.186;-1.528;2023-05-20T13:47:37;26.30;34.30
79055;DHT22;68452;47.186;-1.528;2023-05-20T13:50:03;26.40;34.00
79055;DHT22;68452;47.186;-1.528;2023-05-20T13:52:30;26.40;34.20
79055;DHT22;68452;47.186;-1.528;2023-05-20T13:54:56;26.50;34.30
79055;DHT22;68452;47.186;-1.528;2023-05-20T13:57:22;26.50;33.90
79055;DHT22;68452;47.186;-1.528;2023-05-20T13:59:48;26.50;34.20
79055;DHT22;68452;47.186;-1.528;2023-05-20T14:02:13;26.50;34.20
79055;DHT22;68452;47.186;-1.528;2023-05-20T14:04:39;26.70;33.70
79055;DHT22;68452;47.186;-1.528;2023-05-20T14:07:09;26.80;33.70
79055;DHT22;68452;47.186;-1.528;2023-05-20T14:09:35;26.70;32.90
79055;DHT22;68452;47.186;-1.528;2023-05-20T14:12:01;26.40;33.70
79055;DHT22;68452;47.186;-1.528;2023-05-20T14:14:27;26.20;33.50
79055;DHT22;68452;47.186;-1.528;2023-05-20T14:16:52;26.30;34.00
79055;DHT22;68452;47.186;-1.528;2023-05-20T14:19:18;27.20;32.90
79055;DHT22;68452;47.186;-1.528;2023-05-20T14:21:44;27.80;32.00
79055;DHT22;68452;47.186;-1.528;2023-05-20T14:24:10;27.60;32.10
79055;DHT22;68452;47.186;-1.528;2023-05-20T14:26:36;27.20;31.60
79055;DHT22;68452;47.186;-1.528;2023-05-20T14:29:01;27.60;32.00
79055;DHT22;68452;47.186;-1.528;2023-05-20T14:31:27;29.60;30.00
79055;DHT22;68452;47.186;-1.528;2023-05-20T14:33:53;31.80;28.90
79055;DHT22;68452;47.186;-1.528;2023-05-20T14:36:19;32.70;26.90
79055;DHT22;68452;47.186;-1.528;2023-05-20T14:38:47;31.00;27.40
79055;DHT22;68452;47.186;-1.528;2023-05-20T14:41:13;29.40;28.60
79055;DHT22;68452;47.186;-1.528;2023-05-20T14:43:40;28.20;29.90
79055;DHT22;68452;47.186;-1.528;2023-05-20T14:46:05;27.40;31.10
79055;DHT22;68452;47.186;-1.528;2023-05-20T14:48:31;27.90;31.30
79055;DHT22;68452;47.186;-1.528;2023-05-20T14:50:58;29.60;30.20
79055;DHT22;68452;47.186;-1.528;2023-05-20T14:53:24;29.20;29.50
79055;DHT22;68452;47.186;-1.528;2023-05-20T14:55:50;28.20;30.70
79055;DHT22;68452;47.186;-1.528;2023-05-20T14:58:16;27.30;31.10
79055;DHT22;68452;47.186;-1.528;2023-05-20T15:00:42;26.80;31.40
79055;DHT22;68452;47.186;-1.528;2023-05-20T15:03:08;26.60;32.20
79055;DHT22;68452;47.186;-1.528;2023-05-20T15:05:34;26.60;32.40
79055;DHT22;68452;47.186;-1.528;2023-05-20T15:08:00;26.60;32.80
79055;DHT22;68452;47.186;-1.528;2023-05-20T15:10:26;26.70;33.20
79055;DHT22;68452;47.186;-1.528;2023-05-20T15:12:52;26.70;32.20
79055;DHT22;68452;47.186;-1.528;2023-05-20T15:15:20;26.60;32.80
79055;DHT22;68452;47.186;-1.528;2023-05-20T15:17:46;26.50;32.60
79055;DHT22;68452;47.186;-1.528;2023-05-20T15:20:12;26.30;32.70
79055;DHT22;68452;47.186;-1.528;2023-05-20T15:22:38;26.20;32.00